Time;durP1;ratioP1;P1;durP2;ratioP2;P2;SDS_P1;SDS_P2;PMS_P1;PMS_P2;Temp;Humidity;BMP_temperature;BMP_pressure;BME280_temperature;BME280_humidity;BME280_pressure;Samples;Min_cycle;Max_cycle;Signal;HPM_P1;HPM_P2
2021/05/02 00:01:08;;;;;;;31.10;23.43;;;9.80;99.90;;;;;;1923672;74;21651;-77
2021/05/02 00:03:36;;;;;;;30.65;24.82;;;9.70;99.90;;;;;;1922663;73;21594;-77
2021/05/02 00:06:06;;;;;;;30.40;24.72;;;9.70;99.90;;;;;;1923686;74;21106;-76
2021/05/02 00:08:34;;;;;;;32.15;23.90;;;9.70;99.90;;;;;;1925222;74;21215;-77
2021/05/02 00:11:04;;;;;;;28.87;24.43;;;9.70;99.90;;;;;;1926080;73;21093;-77
2021/05/02 00:13:32;;;;;;;32.78;25.40;;;9.60;99.90;;;;;;1910679;75;21036;-78
2021/05/02 00:15:59;;;;;;;32.63;25.90;;;9.70;99.90;;;;;;1907907;75;21113;-77
2021/05/02 00:18:27;;;;;;;31.85;24.43;;;9.60;99.90;;;;;;1913863;75;21148;-77
2021/05/02 00:20:57;;;;;;;32.15;26.52;;;9.60;99.90;;;;;;1926749;73;21105;-77
2021/05/02 00:23:25;;;;;;;35.52;26.62;;;9.60;99.90;;;;;;1925721;74;21159;-77
2021/05/02 00:25:52;;;;;;;32.85;26.37;;;9.60;99.90;;;;;;1925032;73;21078;-77
2021/05/02 00:28:20;;;;;;;34.15;27.40;;;9.60;99.90;;;;;;1926025;73;21498;-77
2021/05/02 00:30:48;;;;;;;34.20;27.02;;;9.50;99.90;;;;;;1922127;73;21164;-77
2021/05/02 00:33:18;;;;;;;30.60;24.75;;;9.60;99.90;;;;;;1922166;74;22088;-77
2021/05/02 00:35:48;;;;;;;35.45;27.07;;;9.50;99.90;;;;;;1922814;73;21190;-76
2021/05/02 00:38:15;;;;;;;34.43;26.90;;;9.50;99.90;;;;;;1923914;74;21081;-76
2021/05/02 00:40:44;;;;;;;35.00;25.77;;;9.50;99.90;;;;;;1922132;73;21144;-76
2021/05/02 00:43:16;;;;;;;34.65;26.95;;;9.50;99.90;;;;;;1923144;73;21269;-76
2021/05/02 00:46:05;;;;;;;34.58;25.62;;;9.50;99.90;;;;;;1921077;74;21062;-76
2021/05/02 00:48:52;;;;;;;34.03;26.73;;;9.30;99.90;;;;;;1919979;74;21150;-76
2021/05/02 00:51:23;;;;;;;29.45;24.82;;;9.30;99.90;;;;;;1920241;73;22764;-77
2021/05/02 00:53:59;;;;;;;35.17;25.88;;;9.20;99.90;;;;;;1921454;73;21257;-77
2021/05/02 00:56:34;;;;;;;36.95;26.57;;;9.10;99.90;;;;;;1944877;73;21097;-76
2021/05/02 00:59:19;;;;;;;32.93;25.00;;;9.00;99.90;;;;;;1924062;74;21095;-76
2021/05/02 01:01:52;;;;;;;28.83;24.72;;;9.00;99.90;;;;;;1883042;74;21195;-76
2021/05/02 01:04:23;;;;;;;31.52;23.42;;;9.00;99.90;;;;;;1924543;73;21160;-76
2021/05/02 01:06:52;;;;;;;27.67;23.27;;;9.10;99.90;;;;;;1925140;74;21186;-77
2021/05/02 01:09:21;;;;;;;29.75;23.87;;;9.10;99.90;;;;;;1925468;74;21114;-76
2021/05/02 01:11:49;;;;;;;27.05;23.05;;;9.20;99.90;;;;;;1925482;73;21090;-76
2021/05/02 01:14:20;;;;;;;27.35;23.00;;;9.10;99.90;;;;;;1923580;74;21097;-77
2021/05/02 01:16:49;;;;;;;29.23;23.25;;;9.00;99.90;;;;;;1927280;74;21649;-77
2021/05/02 01:19:17;;;;;;;30.05;23.42;;;9.10;99.90;;;;;;1927522;73;21537;-76
2021/05/02 01:21:47;;;;;;;29.27;24.05;;;9.00;99.90;;;;;;1923361;74;21206;-76
2021/05/02 01:24:16;;;;;;;26.97;22.22;;;9.00;99.90;;;;;;1927353;74;21141;-77
2021/05/02 01:26:46;;;;;;;27.75;22.85;;;9.00;99.90;;;;;;1925823;74;21078;-76
2021/05/02 01:29:15;;;;;;;27.73;22.40;;;9.10;99.90;;;;;;1945727;73;21130;-76
2021/05/02 01:31:44;;;;;;;25.97;21.93;;;9.00;99.90;;;;;;1911832;75;21498;-76
2021/05/02 01:34:12;;;;;;;27.10;22.45;;;9.10;99.90;;;;;;1923161;73;21459;-76
2021/05/02 01:36:39;;;;;;;25.57;21.17;;;9.00;99.90;;;;;;1925022;73;22209;-76
2021/05/02 01:39:09;;;;;;;23.35;20.45;;;9.00;99.90;;;;;;1924079;74;22189;-76
2021/05/02 01:41:37;;;;;;;24.25;20.88;;;9.10;99.90;;;;;;1925224;73;21079;-76
2021/05/02 01:44:05;;;;;;;26.15;20.75;;;9.00;99.90;;;;;;1926413;73;21082;-76
2021/05/02 01:46:38;;;;;;;26.93;20.45;;;9.00;99.90;;;;;;1923869;74;21066;-76
2021/05/02 01:49:08;;;;;;;23.47;19.67;;;9.00;99.90;;;;;;1921533;74;21069;-76
2021/05/02 01:51:38;;;;;;;24.70;20.45;;;9.00;99.90;;;;;;1923699;73;21078;-76
2021/05/02 01:54:06;;;;;;;25.50;20.55;;;9.00;99.90;;;;;;1923302;74;21536;-76
2021/05/02 01:56:35;;;;;;;24.15;19.67;;;9.00;99.90;;;;;;1927325;73;21080;-76
2021/05/02 01:59:05;;;;;;;29.23;21.15;;;8.90;99.90;;;;;;1926898;74;21598;-76
2021/05/02 02:01:33;;;;;;;27.10;21.00;;;8.80;99.90;;;;;;1924116;73;21070;-76
2021/05/02 02:04:05;;;;;;;25.70;20.40;;;8.70;99.90;;;;;;1923602;73;21113;-76
2021/05/02 02:06:34;;;;;;;24.98;19.87;;;8.60;99.90;;;;;;1925031;74;21124;-76
2021/05/02 02:09:08;;;;;;;26.35;20.02;;;8.70;99.90;;;;;;1924170;74;21079;-76
2021/05/02 02:11:37;;;;;;;28.00;20.70;;;8.70;99.90;;;;;;1924973;73;21043;-76
2021/05/02 02:14:04;;;;;;;24.43;19.60;;;8.70;99.90;;;;;;1923392;73;21077;-76
2021/05/02 02:16:32;;;;;;;26.48;20.17;;;8.80;99.90;;;;;;1920782;74;21065;-76
2021/05/02 02:18:59;;;;;;;23.90;19.55;;;8.80;99.90;;;;;;1925377;73;21081;-76
2021/05/02 02:21:27;;;;;;;23.60;18.52;;;8.70;99.90;;;;;;1922087;73;20996;-76
2021/05/02 02:23:58;;;;;;;25.25;20.60;;;8.80;99.90;;;;;;1925882;74;21030;-76
2021/05/02 02:26:28;;;;;;;27.30;19.82;;;8.80;99.90;;;;;;1924896;74;21166;-76
2021/05/02 02:28:56;;;;;;;23.38;18.87;;;8.80;99.90;;;;;;1924183;74;21555;-76
2021/05/02 02:31:24;;;;;;;25.43;19.17;;;8.70;99.90;;;;;;1921832;73;22184;-76
2021/05/02 02:33:52;;;;;;;24.37;19.85;;;8.60;99.90;;;;;;1925799;73;21175;-76
2021/05/02 02:36:21;;;;;;;24.05;18.65;;;8.60;99.90;;;;;;1922235;74;21548;-76
2021/05/02 02:38:49;;;;;;;24.50;19.20;;;8.50;99.90;;;;;;1923323;74;21097;-76
2021/05/02 02:41:18;;;;;;;23.15;18.55;;;8.50;99.90;;;;;;1925575;73;21219;-76
2021/05/02 02:43:57;;;;;;;23.30;18.67;;;8.50;99.90;;;;;;1922668;74;21097;-76
2021/05/02 02:46:25;;;;;;;24.60;20.02;;;8.50;99.90;;;;;;1926537;73;21192;-76
2021/05/02 02:48:58;;;;;;;24.25;19.65;;;8.40;99.90;;;;;;1923873;74;21436;-76
2021/05/02 02:51:27;;;;;;;23.27;18.62;;;8.40;99.90;;;;;;1921714;73;21046;-76
2021/05/02 02:53:57;;;;;;;24.57;20.48;;;8.50;99.90;;;;;;1925038;74;21489;-76
2021/05/02 02:56:27;;;;;;;24.63;20.77;;;8.50;99.90;;;;;;1925507;73;21179;-76
2021/05/02 02:59:00;;;;;;;25.92;20.62;;;8.50;99.90;;;;;;1926594;74;21125;-76
2021/05/02 03:01:28;;;;;;;23.67;19.37;;;8.40;99.90;;;;;;1926156;73;21088;-76
2021/05/02 03:03:58;;;;;;;27.82;19.90;;;8.40;99.90;;;;;;1925765;73;21011;-76
2021/05/02 03:06:27;;;;;;;23.40;18.37;;;8.40;99.90;;;;;;1943878;73;21081;-76
2021/05/02 03:08:56;;;;;;;20.72;18.15;;;8.40;99.90;;;;;;1926792;73;21102;-76
2021/05/02 03:11:25;;;;;;;25.92;19.27;;;8.30;99.90;;;;;;1944303;73;21038;-76
2021/05/02 03:13:54;;;;;;;25.27;20.10;;;8.30;99.90;;;;;;1932982;73;21050;-76
2021/05/02 03:16:27;;;;;;;21.33;18.90;;;8.30;99.90;;;;;;1923925;74;21113;-76
2021/05/02 03:19:03;;;;;;;24.98;19.32;;;8.20;99.90;;;;;;1898480;74;21617;-76
2021/05/02 03:21:37;;;;;;;24.10;19.20;;;8.20;99.90;;;;;;1923630;73;21163;-76
2021/05/02 03:24:07;;;;;;;23.18;18.70;;;8.20;99.90;;;;;;1920662;74;21611;-76
2021/05/02 03:26:37;;;;;;;21.62;18.70;;;8.20;99.90;;;;;;1943650;73;21090;-76
2021/05/02 03:29:05;;;;;;;22.93;18.52;;;8.20;99.90;;;;;;1913364;75;21086;-76
2021/05/02 03:31:35;;;;;;;20.82;18.05;;;8.20;99.90;;;;;;1927351;73;21082;-75
2021/05/02 03:34:05;;;;;;;23.95;18.90;;;8.20;99.90;;;;;;1944423;73;21042;-75
2021/05/02 03:36:39;;;;;;;26.02;19.73;;;8.20;99.90;;;;;;1914275;75;21238;-76
2021/05/02 03:39:06;;;;;;;24.55;19.50;;;8.10;99.90;;;;;;1939094;73;21141;-76
2021/05/02 03:41:36;;;;;;;24.70;18.87;;;8.00;99.90;;;;;;1943528;73;21185;-76
2021/05/02 03:44:05;;;;;;;24.30;20.88;;;8.00;99.90;;;;;;1924034;74;21090;-76
2021/05/02 03:46:33;;;;;;;23.67;19.12;;;8.10;99.90;;;;;;1922410;74;21607;-76
2021/05/02 03:49:09;;;;;;;21.97;18.10;;;8.10;99.90;;;;;;1927129;74;21098;-76
2021/05/02 03:51:38;;;;;;;25.70;18.62;;;8.10;99.90;;;;;;1924408;73;21101;-76
2021/05/02 03:54:07;;;;;;;22.90;18.12;;;8.00;99.90;;;;;;1928211;74;21054;-76
2021/05/02 03:56:40;;;;;;;23.98;18.52;;;8.00;99.90;;;;;;1923569;73;21592;-76
2021/05/02 03:59:11;;;;;;;21.05;18.75;;;7.80;99.90;;;;;;1926889;74;21655;-76
2021/05/02 04:01:49;;;;;;;21.42;18.77;;;7.80;99.90;;;;;;1925054;74;21195;-76
2021/05/02 04:04:24;;;;;;;23.07;19.12;;;7.70;99.90;;;;;;1924111;73;21066;-76
2021/05/02 04:06:54;;;;;;;25.15;19.50;;;7.70;99.90;;;;;;1924284;74;22184;-76
2021/05/02 04:09:21;;;;;;;21.07;18.23;;;7.70;99.90;;;;;;1922210;74;21172;-76
2021/05/02 04:11:49;;;;;;;23.15;18.77;;;7.70;99.90;;;;;;1929016;74;21206;-76
2021/05/02 04:14:17;;;;;;;21.45;18.98;;;7.80;99.90;;;;;;1923341;73;21061;-76
2021/05/02 04:16:47;;;;;;;22.98;19.05;;;7.80;99.90;;;;;;1925562;73;21058;-75
2021/05/02 04:19:14;;;;;;;22.37;19.65;;;7.90;99.90;;;;;;1920494;74;21047;-76
2021/05/02 04:21:42;;;;;;;24.35;19.82;;;7.90;99.90;;;;;;1922588;73;21101;-76
2021/05/02 04:24:09;;;;;;;22.60;19.60;;;8.00;99.90;;;;;;1922515;74;21171;-76
2021/05/02 04:26:37;;;;;;;22.50;19.70;;;8.10;99.90;;;;;;1922637;73;21132;-76
2021/05/02 04:29:04;;;;;;;22.00;19.65;;;8.20;99.90;;;;;;1921961;74;21545;-76
2021/05/02 04:31:32;;;;;;;22.45;19.77;;;8.20;99.90;;;;;;1922800;73;21066;-76
2021/05/02 04:33:59;;;;;;;21.70;19.37;;;8.30;99.90;;;;;;1922395;73;21167;-76
2021/05/02 04:36:27;;;;;;;24.80;18.87;;;8.30;99.90;;;;;;1922290;74;21622;-76
2021/05/02 04:38:54;;;;;;;23.95;20.37;;;8.30;99.90;;;;;;1923885;74;21062;-76
2021/05/02 04:41:22;;;;;;;25.17;19.23;;;8.30;99.90;;;;;;1923078;73;21215;-76
2021/05/02 04:43:49;;;;;;;23.62;20.27;;;8.40;99.90;;;;;;1920871;74;21194;-76
2021/05/02 04:46:17;;;;;;;23.38;19.70;;;8.40;99.90;;;;;;1922113;73;21191;-76
2021/05/02 04:48:45;;;;;;;23.25;19.50;;;8.40;99.90;;;;;;1922913;74;21246;-76
2021/05/02 04:51:14;;;;;;;23.50;19.20;;;8.50;99.90;;;;;;1922619;73;21109;-75
2021/05/02 04:53:43;;;;;;;27.45;20.02;;;8.70;99.90;;;;;;1923183;73;21116;-76
2021/05/02 04:56:11;;;;;;;22.70;20.23;;;8.70;99.90;;;;;;1922417;73;21015;-76
2021/05/02 04:58:38;;;;;;;23.77;19.52;;;8.70;99.90;;;;;;1922917;74;21113;-77
2021/05/02 05:01:07;;;;;;;25.97;18.45;;;8.80;99.90;;;;;;1920855;74;21206;-76
2021/05/02 05:03:36;;;;;;;22.70;19.17;;;8.90;99.90;;;;;;1922442;74;21488;-76
2021/05/02 05:06:04;;;;;;;20.65;18.20;;;8.90;99.90;;;;;;1919835;74;21144;-75
2021/05/02 05:08:31;;;;;;;23.20;19.67;;;8.90;99.90;;;;;;1923167;74;21674;-75
2021/05/02 05:10:59;;;;;;;22.65;18.85;;;9.00;99.90;;;;;;1922827;74;21109;-76
2021/05/02 05:13:26;;;;;;;24.37;18.32;;;8.90;99.90;;;;;;1922341;74;21124;-76
2021/05/02 05:16:00;;;;;;;23.00;17.73;;;8.90;99.90;;;;;;1920851;74;21113;-76
2021/05/02 05:18:28;;;;;;;23.85;17.40;;;8.90;99.90;;;;;;1921824;74;21109;-76
2021/05/02 05:20:57;;;;;;;26.65;17.32;;;8.90;99.90;;;;;;1922962;73;21085;-76
2021/05/02 05:23:25;;;;;;;21.77;17.25;;;9.00;99.90;;;;;;1923436;74;21071;-76
2021/05/02 05:25:54;;;;;;;21.60;16.25;;;9.00;99.90;;;;;;1922027;73;21759;-76
2021/05/02 05:28:26;;;;;;;21.90;16.93;;;9.10;99.90;;;;;;1925056;74;21093;-76
2021/05/02 05:30:54;;;;;;;20.80;17.30;;;9.20;99.90;;;;;;1924798;74;21582;-76
2021/05/02 05:33:23;;;;;;;22.25;17.25;;;9.30;99.90;;;;;;1924434;74;21117;-76
2021/05/02 05:35:51;;;;;;;20.55;17.67;;;9.40;99.90;;;;;;1923217;73;21100;-76
2021/05/02 05:38:18;;;;;;;21.73;16.50;;;9.40;99.90;;;;;;1924238;74;21077;-76
2021/05/02 05:40:46;;;;;;;23.92;17.87;;;9.40;99.90;;;;;;1923564;73;21109;-76
2021/05/02 05:43:13;;;;;;;21.12;17.82;;;9.40;99.90;;;;;;1922939;74;21030;-76
2021/05/02 05:45:41;;;;;;;29.52;18.12;;;9.40;99.90;;;;;;1922690;73;21101;-76
2021/05/02 05:48:08;;;;;;;21.25;16.00;;;9.40;99.90;;;;;;1920971;73;21122;-76
2021/05/02 05:50:36;;;;;;;24.32;17.00;;;9.30;99.90;;;;;;1922990;74;21104;-76
2021/05/02 05:53:03;;;;;;;23.18;18.00;;;9.30;99.90;;;;;;1922805;74;21071;-76
2021/05/02 05:55:31;;;;;;;23.05;18.05;;;9.30;99.90;;;;;;1920751;73;21058;-77
2021/05/02 05:57:58;;;;;;;27.30;18.52;;;9.50;99.90;;;;;;1924042;74;21587;-76
2021/05/02 06:00:26;;;;;;;19.25;16.45;;;9.50;99.90;;;;;;1921348;74;21090;-77
2021/05/02 06:02:53;;;;;;;21.07;17.02;;;9.50;99.90;;;;;;1922088;74;21133;-76
2021/05/02 06:05:21;;;;;;;23.05;18.65;;;9.50;99.90;;;;;;1920174;73;21550;-76
2021/05/02 06:07:48;;;;;;;20.30;16.75;;;9.40;99.90;;;;;;1919762;73;21194;-76
2021/05/02 06:10:16;;;;;;;23.38;17.55;;;9.50;99.90;;;;;;1921699;74;21181;-77
2021/05/02 06:12:43;;;;;;;25.60;17.95;;;9.50;99.90;;;;;;1924322;74;21102;-76
2021/05/02 06:15:13;;;;;;;23.90;17.92;;;9.50;99.90;;;;;;1920710;73;21165;-76
2021/05/02 06:17:41;;;;;;;20.72;17.15;;;9.60;99.90;;;;;;1923059;74;21185;-77
2021/05/02 06:20:09;;;;;;;23.25;16.87;;;9.60;99.90;;;;;;1923729;74;21108;-76
2021/05/02 06:22:37;;;;;;;21.27;16.65;;;9.60;99.90;;;;;;1922582;73;21082;-76
2021/05/02 06:25:07;;;;;;;20.90;17.05;;;9.60;99.90;;;;;;1923091;74;21097;-76
2021/05/02 06:27:36;;;;;;;22.07;17.35;;;9.70;99.90;;;;;;1922644;73;21114;-76
2021/05/02 06:30:05;;;;;;;24.12;18.32;;;9.70;99.90;;;;;;1921843;73;21163;-76
2021/05/02 06:32:33;;;;;;;23.73;18.92;;;9.70;99.90;;;;;;1922006;74;21086;-76
2021/05/02 06:35:01;;;;;;;28.17;21.25;;;9.80;99.90;;;;;;1921511;73;21101;-76
2021/05/02 06:37:29;;;;;;;24.85;19.75;;;9.80;99.90;;;;;;1922891;74;21520;-76
2021/05/02 06:39:57;;;;;;;24.75;18.60;;;9.90;99.90;;;;;;1921883;74;21574;-76
2021/05/02 06:42:25;;;;;;;25.12;18.00;;;10.10;99.90;;;;;;1923010;74;21557;-76
2021/05/02 06:44:53;;;;;;;24.80;19.17;;;10.10;99.90;;;;;;1920724;73;21117;-76
2021/05/02 06:47:21;;;;;;;22.85;17.40;;;10.10;99.90;;;;;;1923444;74;21703;-76
2021/05/02 06:49:48;;;;;;;21.95;17.60;;;10.10;99.90;;;;;;1922324;74;21128;-76
2021/05/02 06:52:16;;;;;;;21.48;17.50;;;10.20;99.90;;;;;;1922760;73;21551;-76
2021/05/02 06:54:45;;;;;;;23.25;17.80;;;10.30;99.90;;;;;;1922566;73;21129;-76
2021/05/02 06:57:13;;;;;;;23.05;16.93;;;10.30;99.90;;;;;;1923688;73;21089;-76
2021/05/02 06:59:41;;;;;;;21.23;17.05;;;10.50;99.90;;;;;;1923116;74;21145;-76
2021/05/02 07:02:09;;;;;;;21.15;16.95;;;10.60;99.90;;;;;;1920811;73;21037;-76
2021/05/02 07:04:36;;;;;;;18.77;15.23;;;10.50;99.90;;;;;;1923148;74;21077;-76
2021/05/02 07:07:05;;;;;;;22.60;17.27;;;10.60;99.90;;;;;;1921359;73;21633;-76
2021/05/02 07:09:32;;;;;;;22.52;18.80;;;10.70;99.90;;;;;;1922904;74;21113;-76
2021/05/02 07:12:00;;;;;;;23.70;18.50;;;10.70;99.90;;;;;;1922723;73;21093;-77
2021/05/02 07:14:28;;;;;;;20.90;16.40;;;10.80;99.90;;;;;;1921832;74;22593;-76
2021/05/02 07:16:55;;;;;;;24.92;17.42;;;10.90;99.90;;;;;;1923080;74;21183;-76
2021/05/02 07:19:23;;;;;;;20.25;17.27;;;10.80;99.90;;;;;;1922853;74;21243;-76
2021/05/02 07:22:02;;;;;;;21.40;16.37;;;10.80;99.90;;;;;;1921595;74;21206;-76
2021/05/02 07:24:27;;;;;;;27.17;18.00;;;10.80;99.90;;;;;;1922843;74;21277;-76
2021/05/02 07:26:54;;;;;;;22.73;17.67;;;10.80;99.90;;;;;;1923012;73;21226;-77
2021/05/02 07:29:22;;;;;;;21.05;15.80;;;10.80;99.90;;;;;;1921930;74;21205;-76
2021/05/02 07:31:50;;;;;;;22.15;17.15;;;10.80;99.90;;;;;;1922577;73;21649;-76
2021/05/02 07:34:18;;;;;;;21.77;15.88;;;10.90;99.90;;;;;;1922170;73;22201;-76
2021/05/02 07:36:46;;;;;;;21.62;16.00;;;11.00;99.90;;;;;;1921280;74;21117;-76
2021/05/02 07:39:14;;;;;;;23.87;16.25;;;11.00;99.90;;;;;;1922634;74;21664;-76
2021/05/02 07:41:41;;;;;;;20.62;15.78;;;11.10;99.90;;;;;;1922060;73;21077;-76
2021/05/02 07:44:09;;;;;;;18.32;13.35;;;11.00;99.90;;;;;;1921871;74;21103;-76
2021/05/02 07:46:36;;;;;;;19.25;13.95;;;11.10;99.90;;;;;;1920201;73;21224;-76
2021/05/02 07:49:04;;;;;;;18.27;13.48;;;11.20;99.90;;;;;;1923667;74;21819;-76
2021/05/02 07:51:32;;;;;;;17.80;13.05;;;11.10;99.90;;;;;;1922173;73;21121;-77
2021/05/02 07:53:59;;;;;;;18.37;14.28;;;11.10;99.90;;;;;;1922464;73;21150;-77
2021/05/02 07:56:27;;;;;;;17.92;12.85;;;11.10;99.90;;;;;;1922955;73;21728;-77
2021/05/02 07:58:54;;;;;;;14.47;11.57;;;11.10;99.90;;;;;;1922085;74;21619;-77
2021/05/02 08:01:22;;;;;;;13.78;10.40;;;11.30;99.90;;;;;;1922517;73;21096;-77
2021/05/02 08:03:49;;;;;;;14.20;10.00;;;11.40;99.90;;;;;;1921500;74;21115;-78
2021/05/02 08:06:17;;;;;;;15.53;9.98;;;11.40;99.90;;;;;;1923287;73;21120;-78
2021/05/02 08:08:44;;;;;;;12.85;8.35;;;11.50;99.90;;;;;;1922015;73;21626;-77
2021/05/02 08:11:12;;;;;;;10.23;7.42;;;11.50;99.90;;;;;;1922699;73;21058;-78
2021/05/02 08:13:39;;;;;;;8.55;6.58;;;11.40;99.90;;;;;;1923060;73;21132;-77
2021/05/02 08:16:07;;;;;;;12.65;6.75;;;11.50;99.90;;;;;;1944508;73;21378;-77
2021/05/02 08:18:34;;;;;;;12.33;7.28;;;11.50;99.90;;;;;;1932828;74;21149;-77
2021/05/02 08:21:04;;;;;;;8.68;5.72;;;11.60;99.90;;;;;;1922293;74;21067;-77
2021/05/02 08:23:31;;;;;;;7.47;5.35;;;11.70;99.90;;;;;;1945520;73;21695;-77
2021/05/02 08:25:59;;;;;;;5.45;4.80;;;11.60;99.90;;;;;;1928528;73;21210;-78
2021/05/02 08:28:26;;;;;;;5.45;4.40;;;11.50;99.90;;;;;;1924703;73;21528;-78
2021/05/02 08:30:54;;;;;;;7.10;4.60;;;11.60;99.90;;;;;;1925659;73;21241;-77
2021/05/02 08:33:21;;;;;;;6.87;4.92;;;11.60;99.90;;;;;;1945368;73;21069;-77
2021/05/02 08:35:49;;;;;;;6.53;5.22;;;11.70;99.90;;;;;;1925605;74;21090;-77
2021/05/02 08:38:17;;;;;;;6.17;4.30;;;11.80;99.90;;;;;;1925352;74;21199;-77
2021/05/02 08:40:44;;;;;;;6.75;4.75;;;11.80;99.90;;;;;;1924198;74;21690;-77
2021/05/02 08:43:12;;;;;;;7.55;4.92;;;11.70;99.90;;;;;;1925505;73;21508;-77
2021/05/02 08:45:39;;;;;;;8.33;4.60;;;11.60;99.90;;;;;;1926303;74;21188;-77
2021/05/02 08:48:07;;;;;;;10.48;6.10;;;11.50;99.90;;;;;;1924097;73;21091;-77
2021/05/02 08:50:34;;;;;;;9.30;6.08;;;11.40;99.90;;;;;;1942659;73;21105;-77
2021/05/02 08:53:06;;;;;;;10.10;6.20;;;11.20;99.90;;;;;;1929967;73;21133;-77
2021/05/02 08:55:34;;;;;;;12.50;6.45;;;11.10;99.90;;;;;;1941935;73;21144;-77
2021/05/02 08:58:03;;;;;;;8.98;6.85;;;11.20;99.90;;;;;;1929904;74;21230;-77
2021/05/02 09:00:31;;;;;;;10.53;7.25;;;11.20;99.90;;;;;;1913244;75;21103;-77
2021/05/02 09:02:58;;;;;;;10.25;8.15;;;11.20;99.90;;;;;;1913203;73;21188;-77
2021/05/02 09:05:26;;;;;;;11.12;8.15;;;11.20;99.90;;;;;;1913598;75;21097;-77
2021/05/02 09:07:54;;;;;;;14.00;8.65;;;11.20;99.90;;;;;;1932147;73;21113;-77
2021/05/02 09:10:21;;;;;;;14.95;8.88;;;11.20;99.90;;;;;;1925633;74;21098;-77
2021/05/02 09:13:04;;;;;;;15.32;9.80;;;11.30;99.90;;;;;;1944643;73;21054;-77
2021/05/02 09:15:32;;;;;;;11.63;8.48;;;11.20;99.90;;;;;;1924219;74;21163;-77
2021/05/02 09:18:22;;;;;;;12.53;8.95;;;11.40;99.90;;;;;;1924068;74;21222;-76
2021/05/02 09:20:45;;;;;;;;;;;11.20;99.90;;;;;;1915014;73;21214;-76
2021/05/02 09:23:14;;;;;;;9.25;7.62;;;11.20;99.90;;;;;;1925640;73;20178;-76
2021/05/02 09:25:47;;;;;;;10.53;7.80;;;11.20;99.90;;;;;;1924224;74;21129;-76
2021/05/02 09:28:15;;;;;;;9.18;7.15;;;11.20;99.90;;;;;;1925259;73;21199;-76
2021/05/02 09:30:43;;;;;;;10.93;7.35;;;11.40;99.90;;;;;;1924259;73;22717;-76
2021/05/02 09:33:27;;;;;;;11.73;7.17;;;11.40;99.90;;;;;;1942694;73;21552;-76
2021/05/02 09:35:55;;;;;;;9.18;7.35;;;11.50;99.90;;;;;;1911134;75;21223;-77
2021/05/02 09:38:22;;;;;;;12.65;7.37;;;11.50;99.90;;;;;;1938743;73;21252;-77
2021/05/02 09:40:55;;;;;;;15.35;8.70;;;11.40;99.90;;;;;;1931072;73;21092;-76
2021/05/02 09:43:37;;;;;;;11.28;7.90;;;11.30;99.90;;;;;;1926594;74;21737;-76
2021/05/02 09:46:28;;;;;;;10.63;7.65;;;11.50;99.90;;;;;;1942965;73;21115;-77
2021/05/02 09:49:04;;;;;;;10.70;7.15;;;11.50;99.90;;;;;;1922521;73;21175;-76
2021/05/02 09:51:32;;;;;;;9.58;6.70;;;11.60;99.90;;;;;;1923796;74;21078;-78
2021/05/02 09:54:05;;;;;;;8.93;5.55;;;11.50;99.90;;;;;;1926261;74;21082;-77
2021/05/02 09:56:38;;;;;;;8.95;5.70;;;11.30;99.90;;;;;;1945637;72;21086;-76
2021/05/02 09:59:08;;;;;;;8.50;5.67;;;11.30;99.90;;;;;;1921753;73;21670;-76
2021/05/02 10:01:35;;;;;;;11.55;5.70;;;11.50;99.90;;;;;;1925015;74;21482;-77
2021/05/02 10:04:03;;;;;;;9.50;5.60;;;11.50;99.90;;;;;;1926271;74;21156;-76
2021/05/02 10:06:35;;;;;;;12.70;6.25;;;11.50;99.90;;;;;;1926003;74;21137;-77
2021/05/02 10:09:06;;;;;;;11.03;6.03;;;11.60;99.90;;;;;;1923259;73;22307;-76
2021/05/02 10:11:35;;;;;;;9.63;6.33;;;11.40;99.90;;;;;;1924422;74;21173;-76
2021/05/02 10:14:04;;;;;;;11.05;5.70;;;11.30;99.90;;;;;;1924619;74;21086;-76
2021/05/02 10:16:32;;;;;;;10.82;5.67;;;11.30;99.90;;;;;;1925710;74;21062;-76
2021/05/02 10:19:00;;;;;;;8.18;5.95;;;11.10;99.90;;;;;;1923971;73;22075;-76
2021/05/02 10:21:28;;;;;;;11.60;5.78;;;11.10;99.90;;;;;;1926952;73;21123;-76
2021/05/02 10:23:55;;;;;;;10.10;5.40;;;11.20;99.90;;;;;;1922316;73;21118;-76
2021/05/02 10:26:23;;;;;;;11.90;5.62;;;11.10;99.90;;;;;;1919713;73;21026;-76
2021/05/02 10:28:50;;;;;;;9.65;5.30;;;11.00;99.90;;;;;;1922417;73;22401;-76
2021/05/02 10:31:18;;;;;;;8.33;5.20;;;11.00;99.90;;;;;;1921580;73;21184;-77
2021/05/02 10:33:46;;;;;;;9.03;5.47;;;10.80;99.90;;;;;;1923852;74;21740;-76
2021/05/02 10:36:20;;;;;;;8.70;4.67;;;10.90;99.90;;;;;;1919060;74;21157;-76
2021/05/02 10:38:52;;;;;;;9.43;5.83;;;11.00;99.90;;;;;;1922519;74;21536;-76
2021/05/02 10:41:34;;;;;;;6.90;4.60;;;11.10;99.90;;;;;;1945908;73;21186;-76
2021/05/02 10:44:14;;;;;;;8.23;5.35;;;11.10;99.90;;;;;;1914364;75;21195;-76
2021/05/02 10:46:57;;;;;;;10.18;5.53;;;11.00;99.90;;;;;;1923807;73;21453;-77
2021/05/02 10:49:28;;;;;;;8.33;6.37;;;11.10;99.90;;;;;;1943581;73;21111;-77
2021/05/02 10:52:00;;;;;;;9.65;5.97;;;11.30;99.90;;;;;;1912957;73;21168;-77
2021/05/02 10:54:44;;;;;;;11.33;5.90;;;11.40;99.90;;;;;;1918122;73;21082;-78
2021/05/02 10:57:33;;;;;;;8.58;6.05;;;11.60;99.90;;;;;;1905601;74;21081;-77
2021/05/02 11:00:07;;;;;;;10.35;5.42;;;11.70;99.90;;;;;;1912382;73;21152;-78
2021/05/02 11:02:43;;;;;;;10.32;6.17;;;11.80;99.90;;;;;;1923531;74;21131;-78
2021/05/02 11:05:13;;;;;;;9.30;5.83;;;12.00;99.90;;;;;;1923099;74;21434;-78
2021/05/02 11:07:45;;;;;;;8.20;5.10;;;12.00;99.90;;;;;;1925049;74;21098;-77
2021/05/02 11:10:15;;;;;;;8.80;5.08;;;12.00;99.90;;;;;;1944562;73;21200;-79
2021/05/02 11:12:43;;;;;;;9.33;4.95;;;12.00;99.90;;;;;;1932529;74;21113;-78
2021/05/02 11:15:31;;;;;;;7.85;4.92;;;12.00;99.90;;;;;;1942566;73;21181;-78
2021/05/02 11:17:59;;;;;;;8.95;4.92;;;11.90;99.90;;;;;;1925702;73;21137;-77
2021/05/02 11:20:50;;;;;;;9.23;5.17;;;11.90;99.90;;;;;;1922162;73;21045;-78
2021/05/02 11:23:19;;;;;;;7.60;4.60;;;12.00;99.90;;;;;;1910837;74;21202;-77
2021/05/02 11:25:59;;;;;;;8.85;5.62;;;12.00;99.90;;;;;;1946730;73;21194;-77
2021/05/02 11:28:46;;;;;;;15.72;5.65;;;12.00;99.90;;;;;;1907141;73;21747;-72
2021/05/02 11:31:13;;;;;;;8.53;4.55;;;11.90;99.90;;;;;;1870609;75;21252;-73
2021/05/02 11:33:42;;;;;;;9.35;4.67;;;11.70;99.90;;;;;;1885691;75;21605;-72
2021/05/02 11:36:09;;;;;;;8.00;4.25;;;11.40;99.90;;;;;;1882279;75;21093;-73
2021/05/02 11:38:40;;;;;;;6.90;4.10;;;11.20;99.90;;;;;;1917341;74;21094;-72
2021/05/02 11:41:09;;;;;;;12.05;4.53;;;11.20;99.90;;;;;;1926104;74;21555;-72
2021/05/02 11:43:39;;;;;;;10.70;4.40;;;11.30;99.90;;;;;;1930210;73;21578;-73
2021/05/02 11:46:18;;;;;;;11.18;4.75;;;11.30;99.90;;;;;;1928150;74;21075;-71
2021/05/02 11:48:42;;;;;;;9.05;4.80;;;11.30;99.90;;;;;;1924321;73;21250;-73
2021/05/02 11:51:16;;;;;;;13.55;4.45;;;11.40;99.90;;;;;;1925333;74;21104;-74
2021/05/02 11:53:54;;;;;;;7.47;4.92;;;11.50;99.90;;;;;;1924219;74;21114;-73
2021/05/02 11:56:25;;;;;;;12.73;5.30;;;11.50;99.90;;;;;;1926383;74;21111;-73
2021/05/02 11:58:55;;;;;;;8.85;5.05;;;11.60;99.90;;;;;;1928386;74;21187;-74
2021/05/02 12:01:29;;;;;;;11.90;4.80;;;11.50;99.90;;;;;;1929815;74;21059;-73
2021/05/02 12:04:18;;;;;;;9.18;4.17;;;11.50;99.90;;;;;;1927151;74;21352;-74
2021/05/02 12:06:47;;;;;;;7.62;4.40;;;11.50;99.90;;;;;;1925339;74;21106;-72
2021/05/02 12:09:19;;;;;;;8.03;3.98;;;11.60;99.90;;;;;;1927684;74;21153;-72
2021/05/02 12:11:55;;;;;;;7.67;3.75;;;11.60;99.90;;;;;;1926644;74;21066;-72
2021/05/02 12:14:25;;;;;;;12.45;3.70;;;11.70;99.90;;;;;;1927151;74;21066;-72
2021/05/02 12:16:57;;;;;;;8.78;3.95;;;11.70;99.90;;;;;;1930025;74;20996;-72
2021/05/02 12:19:31;;;;;;;5.78;3.22;;;11.90;99.90;;;;;;1928342;74;21597;-72
2021/05/02 12:21:58;;;;;;;4.17;3.05;;;12.00;99.90;;;;;;1925867;74;21226;-72
2021/05/02 12:24:28;;;;;;;9.40;3.15;;;12.30;99.90;;;;;;1925322;74;21135;-71
2021/05/02 12:26:57;;;;;;;9.80;3.37;;;12.40;99.90;;;;;;1931996;74;21110;-72
2021/05/02 12:29:33;;;;;;;4.87;2.85;;;12.80;99.90;;;;;;1930388;74;21183;-71
2021/05/02 12:32:10;;;;;;;7.62;2.70;;;13.70;99.90;;;;;;1926868;74;21741;-71
2021/05/02 12:34:40;;;;;;;3.40;2.60;;;14.10;99.90;;;;;;1926129;74;21165;-72
2021/05/02 12:37:13;;;;;;;5.10;2.45;;;14.10;99.90;;;;;;1925238;73;21164;-71
2021/05/02 12:39:42;;;;;;;5.45;2.42;;;14.00;99.90;;;;;;1926699;74;21145;-72
2021/05/02 12:42:10;;;;;;;5.83;1.77;;;13.70;99.90;;;;;;1927186;73;21706;-72
2021/05/02 12:44:39;;;;;;;5.97;2.00;;;13.40;99.90;;;;;;1924954;74;21132;-74
2021/05/02 12:47:18;;;;;;;6.95;1.98;;;13.00;99.90;;;;;;1922691;74;21125;-72
2021/05/02 12:49:54;;;;;;;4.35;2.20;;;12.70;99.90;;;;;;1927691;74;21006;-72
2021/05/02 12:52:23;;;;;;;4.97;2.10;;;12.70;99.90;;;;;;1929072;74;21101;-72